This is the latest recevied weather packets stored in our database for station/object N4CRH-13. If no packets are shown the sender has not sent any weather packets the latest 10 day(s).
| Time | Temp. | Humidity | Pressure | Rain* | Wind** | Luminosity | Snow |
|---|---|---|---|---|---|---|---|
| 1777879683 | 11.11° C | 33% | 1290.9 hPa | 0 mm | - | 0 W/m² | - |
| 1777879379 | 11.11° C | 34% | 1291.1 hPa | 0 mm | - | 0 W/m² | - |
| 1777879076 | 11.11° C | 34% | 1291.1 hPa | 0 mm | - | 0 W/m² | - |
| 1777878773 | 10° C | 36% | 1291.2 hPa | 0 mm | - | 0 W/m² | - |
| 1777878471 | 7.78° C | 41% | 1291.1 hPa | 0 mm | - | 0 W/m² | - |
| 1777878167 | 6.11° C | 52% | 1291.1 hPa | 0 mm | - | 0 W/m² | - |
| 1777877864 | 5.56° C | 52% | 1291.1 hPa | 0 mm | - | 0 W/m² | - |
| 1777877560 | 6.11° C | 53% | 1290.9 hPa | 0 mm | - | 0 W/m² | - |
| 1777877257 | 5.56° C | 49% | 1291.1 hPa | 0 mm | - | 0 W/m² | - |
| 1777876954 | 5.56° C | 50% | 1291.4 hPa | 0 mm | - | 0 W/m² | - |
| 1777876652 | 6.11° C | 51% | 1291.2 hPa | 0 mm | - | 0 W/m² | - |
| 1777876350 | 6.11° C | 50% | 1291.4 hPa | 0 mm | - | 0 W/m² | - |
| 1777876046 | 6.11° C | 51% | 1291.3 hPa | 0 mm | - | 0 W/m² | - |
| 1777875741 | 6.67° C | 49% | 1291.3 hPa | 0 mm | - | 0 W/m² | - |
| 1777875438 | 6.67° C | 50% | 1291.5 hPa | 0 mm | - | 0 W/m² | - |
| 1777875135 | 6.67° C | 51% | 1291.5 hPa | 0 mm | - | 0 W/m² | - |
| 1777874832 | 6.67° C | 53% | 1291.4 hPa | 0 mm | - | 0 W/m² | - |
| 1777874528 | 6.67° C | 52% | 1291.4 hPa | 0 mm | - | 0 W/m² | - |
| 1777874225 | 7.22° C | 54% | 1291.5 hPa | 0 mm | - | 0 W/m² | - |
| 1777873922 | 6.67° C | 52% | 1291.5 hPa | 0 mm | - | 0 W/m² | - |
| 1777873619 | 6.67° C | 51% | 1291.4 hPa | 0 mm | - | 0 W/m² | - |
| 1777873316 | 7.22° C | 48% | 1291.7 hPa | 0 mm | - | 0 W/m² | - |
| 1777873013 | 7.78° C | 49% | 1291.7 hPa | 0 mm | - | 0 W/m² | - |
| 1777872710 | 7.78° C | 49% | 1291.5 hPa | 0 mm | - | 0 W/m² | - |
| 1777872407 | 7.78° C | 50% | 1291.8 hPa | 0 mm | - | 0 W/m² | - |
* Rain latest hour (hover to see other rain measurements)
** Current wind speed in m/s (hover to see current wind gust speed)